Open Full Screen Window  High Contrast Mode
Wind Gusting 00 knots
07
August 16, 2017 4:25 PM CDT
Present Weather: Rain
Weather Information
Wind Direction
  350 °
Wind Speed
  07 kt (8 mph)
Wind Gust
  00 kt (0 mph)
Altimeter
29.77 in
Visibility
4 SM
Temperature
19° C
66° F
Dewpoint
19° C
66° F
Humidity
100%
1hr Rain Fall
00.08 in.
24hr Rain Fall
01.32 in.
Sky Condition
Clear
MVFR

METAR KMDS 162125Z AUTO 35007KT 4SM RA CLR 19/19 A2977 RMK AO2 P0008

*Background is not an actual portrayal of the airport.